createdAt,value
2023-08-04T00:02:05.206Z,99967.28
2023-08-04T00:04:36.756Z,99970.38
2023-08-04T00:07:08.640Z,99979.44
2023-08-04T00:09:40.126Z,99980.06
2023-08-04T00:12:11.957Z,99985.41
2023-08-04T00:14:43.431Z,99989.34
2023-08-04T00:17:15.144Z,99986.69
2023-08-04T00:19:46.621Z,99994.91
2023-08-04T00:22:18.451Z,99988.31
2023-08-04T00:24:49.935Z,99994.69
2023-08-04T00:27:21.611Z,99992.44
2023-08-04T00:29:53.110Z,99995.94
2023-08-04T00:32:24.599Z,100003.56
2023-08-04T00:34:56.129Z,99999.66
2023-08-04T00:37:27.635Z,100010.56
2023-08-04T00:39:59.479Z,100009.13
2023-08-04T00:42:30.983Z,100005.03
2023-08-04T00:45:02.707Z,100004.19
2023-08-04T00:47:34.215Z,100008.34
2023-08-04T00:50:06.052Z,100018.88
2023-08-04T00:52:37.548Z,100013.94
2023-08-04T00:55:09.393Z,100015.16
2023-08-04T00:57:41.216Z,100014.97
2023-08-04T01:00:13.018Z,100014.13
2023-08-04T01:02:44.966Z,100009.00
2023-08-04T01:05:16.516Z,100018.03
2023-08-04T01:07:48.376Z,100016.00
2023-08-04T01:10:19.834Z,100021.16
2023-08-04T01:12:51.523Z,100017.63
2023-08-04T01:15:23.011Z,100018.47
2023-08-04T01:17:54.522Z,100014.56
2023-08-04T01:20:26.079Z,100013.94
2023-08-04T01:22:57.580Z,100024.03
2023-08-04T01:25:29.470Z,100028.97
2023-08-04T01:28:01.321Z,100042.75
2023-08-04T01:30:33.025Z,100041.31
2023-08-04T01:33:04.565Z,100053.88
2023-08-04T01:35:36.465Z,100061.91
2023-08-04T01:38:07.975Z,100079.19
2023-08-04T01:40:39.872Z,100084.56
2023-08-04T01:43:11.357Z,100094.25
2023-08-04T01:45:43.200Z,100106.59
2023-08-04T01:48:14.714Z,100117.31
2023-08-04T01:50:46.556Z,100123.91
2023-08-04T01:53:18.380Z,100132.38
2023-08-04T01:55:50.210Z,100134.44
2023-08-04T01:58:22.108Z,100137.50
2023-08-04T02:00:53.737Z,100130.50
2023-08-04T02:03:25.699Z,100140.19
2023-08-04T02:05:57.238Z,100133.78
2023-08-04T02:08:28.741Z,100140.59
2023-08-04T02:11:00.235Z,100136.88
2023-08-04T02:13:32.012Z,100142.44
2023-08-04T02:16:03.573Z,100143.47
2023-08-04T02:18:35.395Z,100146.97
2023-08-04T02:21:07.161Z,100159.13
2023-08-04T02:23:39.009Z,100159.34
2023-08-04T02:26:10.676Z,100161.38
2023-08-04T02:28:42.184Z,100156.66
2023-08-04T02:31:14.053Z,100155.44
2023-08-04T02:33:45.692Z,100158.72
2023-08-04T02:36:17.488Z,100158.72
2023-08-04T02:38:48.988Z,100160.34
2023-08-04T02:41:20.816Z,100160.34
2023-08-04T02:43:52.309Z,100165.50
2023-08-04T02:46:24.312Z,100172.72
2023-08-04T02:48:55.961Z,100170.44
2023-08-04T02:51:27.965Z,100171.06
2023-08-04T02:53:59.648Z,100165.09
2023-08-04T02:56:31.641Z,100169.84
2023-08-04T02:59:03.461Z,100171.91
2023-08-04T03:01:34.946Z,100170.03
2023-08-04T03:04:06.836Z,100177.66
2023-08-04T03:06:38.345Z,100184.06
2023-08-04T03:09:09.896Z,100170.88
2023-08-04T03:11:41.420Z,100182.81
2023-08-04T03:14:13.100Z,100182.22
2023-08-04T03:16:44.647Z,100182.41
2023-08-04T03:19:16.182Z,100176.22
2023-08-04T03:21:47.828Z,100169.03
2023-08-04T03:24:19.801Z,100173.34
2023-08-04T03:26:51.312Z,100180.56
2023-08-04T03:29:22.787Z,100187.31
2023-08-04T03:31:54.313Z,100202.53
2023-08-04T03:34:25.829Z,100208.28
2023-08-04T03:36:57.329Z,100214.66
2023-08-04T03:39:28.790Z,100220.41
2023-08-04T03:42:00.722Z,100214.81
2023-08-04T03:44:32.217Z,100215.63
2023-08-04T03:47:04.154Z,100208.22
2023-08-04T03:49:35.665Z,100209.47
2023-08-04T03:52:07.459Z,100213.13
2023-08-04T03:54:38.946Z,100213.94
2023-08-04T03:57:10.772Z,100213.75
2023-08-04T03:59:42.472Z,100217.69
2023-08-04T04:02:14.348Z,100219.72
2023-08-04T04:04:46.238Z,100223.44
2023-08-04T04:07:17.760Z,100230.00
2023-08-04T04:09:49.478Z,100238.22
2023-08-04T04:12:20.959Z,100231.50
2023-08-04T04:14:52.463Z,100235.69
2023-08-04T04:17:23.942Z,100234.59
2023-08-04T04:19:55.461Z,100245.66
2023-08-04T04:22:26.967Z,100243.66
2023-08-04T04:24:58.477Z,100258.56
2023-08-04T04:27:30.232Z,100260.66
2023-08-04T04:30:01.758Z,100264.41
2023-08-04T04:32:33.300Z,100254.34
2023-08-04T04:35:04.837Z,100260.16
2023-08-04T04:37:36.595Z,100271.50
2023-08-04T04:40:08.099Z,100267.41
2023-08-04T04:42:39.972Z,100277.91
2023-08-04T04:45:11.507Z,100280.19
2023-08-04T04:47:43.345Z,100284.09
2023-08-04T04:50:14.863Z,100287.81
2023-08-04T04:52:46.923Z,100289.28
2023-08-04T04:55:18.448Z,100288.50
2023-08-04T04:57:51.469Z,100297.97
2023-08-04T05:00:23.360Z,100296.50
2023-08-04T05:02:54.928Z,100304.97
2023-08-04T05:05:26.939Z,100311.19
2023-08-04T05:07:58.441Z,100300.53
2023-08-04T05:10:30.224Z,100306.31
2023-08-04T05:13:01.719Z,100316.81
2023-08-04T05:15:33.601Z,100307.69
2023-08-04T05:18:05.159Z,100312.63
2023-08-04T05:20:36.971Z,100319.63
2023-08-04T05:23:08.463Z,100319.44
2023-08-04T05:25:40.321Z,100319.69
2023-08-04T05:28:12.086Z,100326.91
2023-08-04T05:30:43.907Z,100332.09
2023-08-04T05:33:15.738Z,100325.28
2023-08-04T05:35:47.239Z,100322.16
2023-08-04T05:38:19.068Z,100331.81
2023-08-04T05:40:50.570Z,100331.91
2023-08-04T05:43:22.614Z,100328.78
2023-08-04T05:45:54.131Z,100342.19
2023-08-04T05:48:25.982Z,100345.28
2023-08-04T05:50:57.513Z,100340.16
2023-08-04T05:53:29.227Z,100345.03
2023-08-04T05:56:00.730Z,100342.53
2023-08-04T05:58:32.247Z,100351.22
2023-08-04T06:01:04.136Z,100346.19
2023-08-04T06:03:35.708Z,100357.28
2023-08-04T06:06:07.274Z,100363.88
2023-08-04T06:08:38.760Z,100363.09
2023-08-04T06:11:10.584Z,100363.75
2023-08-04T06:13:42.084Z,100362.53
2023-08-04T06:16:13.951Z,100366.25
2023-08-04T06:18:45.491Z,100366.72
2023-08-04T06:21:17.280Z,100375.38
2023-08-04T06:23:48.779Z,100378.50
2023-08-04T06:26:20.631Z,100378.53
2023-08-04T06:28:52.153Z,100384.91
2023-08-04T06:31:24.014Z,100383.38
2023-08-04T06:33:55.526Z,100395.00
2023-08-04T06:36:27.008Z,100399.88
2023-08-04T06:38:58.843Z,100399.41
2023-08-04T06:41:30.320Z,100399.41
2023-08-04T06:44:02.096Z,100408.72
2023-08-04T06:46:33.595Z,100422.06
2023-08-04T06:49:05.537Z,100425.75
2023-08-04T06:51:37.018Z,100427.44
2023-08-04T06:54:08.664Z,100427.38
2023-08-04T06:56:40.150Z,100431.53
2023-08-04T06:59:12.016Z,100425.69
2023-08-04T07:01:43.758Z,100427.00
2023-08-04T07:04:15.272Z,100436.22
2023-08-04T07:06:47.081Z,100430.25
2023-08-04T07:09:18.582Z,100433.59
2023-08-04T07:11:51.442Z,100436.28
2023-08-04T07:14:24.211Z,100433.41
2023-08-04T07:16:55.692Z,100435.25
2023-08-04T07:19:27.169Z,100434.84
2023-08-04T07:21:59.034Z,100438.69
2023-08-04T07:24:32.238Z,100449.38
2023-08-04T07:27:04.476Z,100457.22
2023-08-04T07:29:36.301Z,100458.84
2023-08-04T07:32:08.050Z,100462.84
2023-08-04T07:34:39.868Z,100453.88
2023-08-04T07:37:11.362Z,100452.81
2023-08-04T07:39:43.009Z,100454.94
2023-08-04T07:42:14.519Z,100456.38
2023-08-04T07:44:46.268Z,100465.22
2023-08-04T07:47:17.806Z,100466.34
2023-08-04T07:49:49.601Z,100466.38
2023-08-04T07:52:21.093Z,100470.28
2023-08-04T07:54:52.585Z,100476.75
2023-08-04T07:57:24.348Z,100486.13
2023-08-04T07:59:56.843Z,100483.97
2023-08-04T08:02:28.763Z,100484.53
2023-08-04T08:05:00.342Z,100464.75
2023-08-04T08:07:43.389Z,100484.75
2023-08-04T08:10:16.889Z,100485.84
2023-08-04T08:12:48.740Z,100485.91
2023-08-04T08:15:20.299Z,100486.47
2023-08-04T08:17:51.869Z,100486.75
2023-08-04T08:20:23.427Z,100493.19
2023-08-04T08:22:54.955Z,100493.69
2023-08-04T08:25:26.578Z,100491.19
2023-08-04T08:27:58.077Z,100503.03
2023-08-04T08:30:29.988Z,100499.97
2023-08-04T08:33:01.516Z,100503.94
2023-08-04T08:35:33.457Z,100505.09
2023-08-04T08:38:04.940Z,100486.31
2023-08-04T08:40:36.875Z,100518.09
2023-08-04T08:43:08.392Z,100516.19
2023-08-04T08:45:40.166Z,100523.25
2023-08-04T08:48:11.694Z,100522.38
2023-08-04T08:50:43.675Z,100527.09
2023-08-04T08:53:15.208Z,100526.41
2023-08-04T08:55:47.068Z,100527.75
2023-08-04T08:58:19.115Z,100522.88
2023-08-04T09:00:50.619Z,100525.41
2023-08-04T09:03:22.439Z,100533.16
2023-08-04T09:05:53.948Z,100533.94
2023-08-04T09:08:25.814Z,100533.00
2023-08-04T09:10:57.284Z,100530.84
2023-08-04T09:13:29.508Z,100531.53
2023-08-04T09:16:01.013Z,100538.38
2023-08-04T09:18:32.888Z,100542.75
2023-08-04T09:21:04.372Z,100540.31
2023-08-04T09:23:36.252Z,100547.94
2023-08-04T09:26:07.742Z,100545.22
2023-08-04T09:28:39.246Z,100549.56
2023-08-04T09:31:11.069Z,100548.00
2023-08-04T09:33:42.965Z,100549.53
2023-08-04T09:36:15.126Z,100550.09
2023-08-04T09:38:46.631Z,100559.34
2023-08-04T09:41:18.533Z,100551.56
2023-08-04T09:43:50.069Z,100557.31
2023-08-04T09:46:21.985Z,100546.50
2023-08-04T09:48:53.503Z,100541.69
2023-08-04T09:51:25.354Z,100531.28
2023-08-04T09:53:56.850Z,100527.69
2023-08-04T09:56:28.658Z,100530.56
2023-08-04T09:59:00.603Z,100531.69
2023-08-04T10:01:32.700Z,100534.53
2023-08-04T10:04:04.706Z,100533.47
2023-08-04T10:06:36.292Z,100536.81
2023-08-04T10:09:08.046Z,100536.94
2023-08-04T10:11:39.547Z,100551.31
2023-08-04T10:14:11.613Z,100550.44
2023-08-04T10:16:43.264Z,100550.00
2023-08-04T10:19:15.177Z,100559.22
2023-08-04T10:21:46.902Z,100561.94
2023-08-04T10:24:18.961Z,100559.13
2023-08-04T10:26:50.525Z,100565.47
2023-08-04T10:29:22.191Z,100555.34
2023-08-04T10:31:55.293Z,100558.06
2023-08-04T10:34:27.265Z,100553.09
2023-08-04T10:36:59.226Z,100567.53
2023-08-04T10:39:31.811Z,100572.38
2023-08-04T10:42:04.070Z,100566.47
2023-08-04T10:44:35.558Z,100577.28
2023-08-04T10:47:07.582Z,100567.84
2023-08-04T10:49:39.203Z,100567.22
2023-08-04T10:52:11.060Z,100566.09
2023-08-04T10:54:42.989Z,100577.34
2023-08-04T10:57:14.851Z,100571.50
2023-08-04T10:59:46.740Z,100560.22
2023-08-04T11:02:18.364Z,100553.13
2023-08-04T11:04:50.443Z,100544.78
2023-08-04T11:07:21.979Z,100543.03
2023-08-04T11:09:53.612Z,100540.09
2023-08-04T11:12:25.117Z,100531.56
2023-08-04T11:14:56.618Z,100537.88
2023-08-04T11:17:28.228Z,100552.63
2023-08-04T11:20:00.252Z,100548.81
2023-08-04T11:22:31.789Z,100538.63
2023-08-04T11:25:03.594Z,100541.09
2023-08-04T11:27:35.438Z,100550.19
2023-08-04T11:30:06.916Z,100555.94
2023-08-04T11:32:38.668Z,100563.66
2023-08-04T11:35:10.217Z,100576.88
2023-08-04T11:37:42.133Z,100572.69
2023-08-04T11:40:13.661Z,100563.81
2023-08-04T11:42:45.649Z,100574.88
2023-08-04T11:45:17.159Z,100575.94
2023-08-04T11:47:49.138Z,100567.56
2023-08-04T11:50:20.718Z,100581.34
2023-08-04T11:52:52.276Z,100580.91
2023-08-04T11:55:24.237Z,100581.69
2023-08-04T11:57:55.750Z,100591.97
2023-08-04T12:00:27.430Z,100598.59
2023-08-04T12:02:59.208Z,100594.50
2023-08-04T12:05:31.389Z,100595.41
2023-08-04T12:08:02.999Z,100599.63
2023-08-04T12:10:34.962Z,100610.78
2023-08-04T12:13:06.465Z,100600.56
2023-08-04T12:15:38.232Z,100598.56
2023-08-04T12:18:09.767Z,100592.69
2023-08-04T12:20:41.632Z,100589.19
2023-08-04T12:23:13.878Z,100588.34
2023-08-04T12:25:45.614Z,100583.59
2023-08-04T12:28:17.717Z,100586.75
2023-08-04T12:31:08.205Z,100580.88
2023-08-04T12:33:42.257Z,100582.22
2023-08-04T12:36:13.771Z,100587.63
2023-08-04T12:38:45.435Z,100588.03
2023-08-04T12:41:16.955Z,100584.16
2023-08-04T12:43:48.923Z,100587.47
2023-08-04T12:46:20.532Z,100604.75
2023-08-04T12:48:52.069Z,100606.97
2023-08-04T12:51:23.907Z,100610.59
2023-08-04T12:53:55.438Z,100615.00
2023-08-04T12:56:27.237Z,100624.63
2023-08-04T12:58:58.772Z,100626.84
2023-08-04T13:01:30.630Z,100628.72
2023-08-04T13:04:02.193Z,100630.16
2023-08-04T13:06:34.097Z,100627.09
2023-08-04T13:09:05.616Z,100628.16
2023-08-04T13:11:37.387Z,100626.06
2023-08-04T13:14:08.919Z,100623.94
2023-08-04T13:16:43.554Z,100626.59
2023-08-04T13:19:15.833Z,100623.13
2023-08-04T13:21:47.762Z,100622.31
2023-08-04T13:24:19.781Z,100630.53
2023-08-04T13:26:51.251Z,100627.69
2023-08-04T13:29:23.138Z,100631.53
2023-08-04T13:31:54.734Z,100635.38
2023-08-04T13:34:26.444Z,100630.28
2023-08-04T13:36:57.934Z,100640.03
2023-08-04T13:39:29.438Z,100628.81
2023-08-04T13:42:00.935Z,100626.94
2023-08-04T13:44:32.773Z,100622.47
2023-08-04T13:47:04.482Z,100628.00
2023-08-04T13:49:36.025Z,100632.91
2023-08-04T13:52:07.841Z,100612.19
2023-08-04T13:54:39.330Z,100610.84
2023-08-04T13:57:11.164Z,100622.72
2023-08-04T13:59:42.649Z,100622.91
2023-08-04T14:02:14.643Z,100625.50
2023-08-04T14:04:46.281Z,100630.44
2023-08-04T14:07:18.215Z,100626.72
2023-08-04T14:09:49.745Z,100627.88
2023-08-04T14:12:21.742Z,100624.03
2023-08-04T14:14:53.259Z,100616.31
2023-08-04T14:17:25.445Z,100612.75
2023-08-04T14:19:57.151Z,100617.13
2023-08-04T14:22:28.792Z,100624.47
2023-08-04T14:25:00.299Z,100616.09
2023-08-04T14:27:32.457Z,100624.03
2023-08-04T14:30:04.791Z,100635.38
2023-08-04T14:32:36.313Z,100652.41
2023-08-04T14:35:08.203Z,100652.69
2023-08-04T14:37:39.769Z,100659.00
2023-08-04T14:40:11.685Z,100667.81
2023-08-04T14:42:43.364Z,100659.16
2023-08-04T14:45:15.124Z,100660.88
2023-08-04T14:47:47.082Z,100670.22
2023-08-04T14:50:18.706Z,100662.63
2023-08-04T14:52:50.547Z,100672.00
2023-08-04T14:55:22.076Z,100670.03
2023-08-04T14:57:53.586Z,100667.50
2023-08-04T15:00:25.073Z,100672.50
2023-08-04T15:02:56.616Z,100670.53
2023-08-04T15:05:28.194Z,100666.56
2023-08-04T15:08:00.062Z,100670.53
2023-08-04T15:10:31.648Z,100630.66
2023-08-04T15:13:03.720Z,100663.44
2023-08-04T15:15:35.200Z,100651.19
2023-08-04T15:18:06.885Z,100644.91
2023-08-04T15:20:38.789Z,100625.13
2023-08-04T15:23:10.307Z,100620.06
2023-08-04T15:25:41.842Z,100615.22
2023-08-04T15:28:13.351Z,100618.78
2023-08-04T15:30:45.196Z,100619.78
2023-08-04T15:33:18.888Z,100621.94
2023-08-04T15:35:51.820Z,100628.34
2023-08-04T15:38:23.338Z,100616.06
2023-08-04T15:40:54.883Z,100625.78
2023-08-04T15:43:26.680Z,100626.00
2023-08-04T15:45:58.278Z,100623.41
2023-08-04T15:48:29.993Z,100629.03
2023-08-04T15:51:01.468Z,100629.03
2023-08-04T15:53:33.304Z,100635.16
2023-08-04T15:56:04.788Z,100633.56
2023-08-04T15:58:36.519Z,100635.66
2023-08-04T16:01:07.999Z,100627.97
2023-08-04T16:03:39.851Z,100628.56
2023-08-04T16:06:11.363Z,100638.66
2023-08-04T16:08:42.858Z,100626.00
2023-08-04T16:11:14.343Z,100602.94
2023-08-04T16:13:46.034Z,100636.31
2023-08-04T16:16:17.969Z,100639.44
2023-08-04T16:18:49.521Z,100633.72
2023-08-04T16:21:21.210Z,100643.19
2023-08-04T16:23:54.997Z,100638.25
2023-08-04T16:26:26.797Z,100627.31
2023-08-04T16:28:58.367Z,100625.75
2023-08-04T16:31:30.347Z,100623.09
2023-08-04T16:34:01.859Z,100623.78
2023-08-04T16:36:33.623Z,100631.72
2023-08-04T16:39:05.091Z,100627.66
2023-08-04T16:41:37.007Z,100630.94
2023-08-04T16:44:08.823Z,100628.03
2023-08-04T16:46:40.585Z,100625.84
2023-08-04T16:49:12.418Z,100636.22
2023-08-04T16:51:43.900Z,100633.72
2023-08-04T16:54:15.700Z,100634.91
2023-08-04T16:56:47.481Z,100641.16
2023-08-04T16:59:19.465Z,100645.75
2023-08-04T17:01:50.985Z,100640.78
2023-08-04T17:04:22.977Z,100638.09
2023-08-04T17:06:54.596Z,100638.19
2023-08-04T17:09:27.346Z,100645.13
2023-08-04T17:11:59.032Z,100631.72
2023-08-04T17:14:30.759Z,100628.91
2023-08-04T17:17:02.528Z,100629.13
2023-08-04T17:19:34.045Z,100621.16
2023-08-04T17:22:05.891Z,100624.56
2023-08-04T17:24:37.386Z,100618.66
2023-08-04T17:27:09.197Z,100630.44
2023-08-04T17:29:40.672Z,100630.09
2023-08-04T17:32:14.366Z,100623.97
2023-08-04T17:34:47.186Z,100624.31
2023-08-04T17:37:18.933Z,100628.78
2023-08-04T17:39:50.515Z,100635.00
2023-08-04T17:42:22.316Z,100631.44
2023-08-04T17:44:53.812Z,100634.19
2023-08-04T17:47:25.320Z,100642.78
2023-08-04T17:49:56.938Z,100643.69
2023-08-04T17:52:28.407Z,100647.09
2023-08-04T17:55:00.806Z,100647.56
2023-08-04T17:57:32.312Z,100652.91
2023-08-04T18:00:04.323Z,100648.06
2023-08-04T18:02:35.818Z,100659.19
2023-08-04T18:05:07.691Z,100652.63
2023-08-04T18:07:39.223Z,100678.16
2023-08-04T18:10:11.018Z,100672.53
2023-08-04T18:12:42.528Z,100677.00
2023-08-04T18:15:14.025Z,100686.66
2023-08-04T18:17:45.853Z,100686.88
2023-08-04T18:20:17.420Z,100684.47
2023-08-04T18:22:49.129Z,100688.34
2023-08-04T18:25:20.609Z,100659.56
2023-08-04T18:27:52.112Z,100696.38
2023-08-04T18:30:23.587Z,100705.34
2023-08-04T18:32:55.118Z,100716.88
2023-08-04T18:35:26.621Z,100722.75
2023-08-04T18:37:58.124Z,100720.31
2023-08-04T18:40:29.982Z,100725.19
2023-08-04T18:43:02.176Z,100727.75
2023-08-04T18:45:34.133Z,100731.25
2023-08-04T18:48:05.619Z,100730.25
2023-08-04T18:50:37.478Z,100744.19
2023-08-04T18:53:08.969Z,100750.44
2023-08-04T18:55:40.624Z,100752.56
2023-08-04T18:58:12.114Z,100761.50
2023-08-04T19:00:43.736Z,100757.78
2023-08-04T19:03:15.319Z,100755.13
2023-08-04T19:05:47.354Z,100768.00
2023-08-04T19:08:18.873Z,100771.31
2023-08-04T19:10:50.378Z,100769.47
2023-08-04T19:13:22.299Z,100768.84
2023-08-04T19:15:53.858Z,100773.00
2023-08-04T19:18:25.351Z,100779.84
2023-08-04T19:20:56.871Z,100775.53
2023-08-04T19:23:28.366Z,100773.66
2023-08-04T19:26:01.482Z,100773.03
2023-08-04T19:28:34.419Z,100777.78
2023-08-04T19:31:06.336Z,100780.47
2023-08-04T19:33:37.988Z,100780.88
2023-08-04T19:36:09.475Z,100777.59
2023-08-04T19:38:41.020Z,100784.59
2023-08-04T19:41:12.518Z,100795.09
2023-08-04T19:43:44.494Z,100802.31
2023-08-04T19:46:16.057Z,100799.81
2023-08-04T19:48:48.305Z,100806.63
2023-08-04T19:51:19.870Z,100806.81
2023-08-04T19:53:51.377Z,100807.22
2023-08-04T19:56:22.884Z,100804.94
2023-08-04T19:58:54.473Z,100813.16
2023-08-04T20:01:26.388Z,100815.44
2023-08-04T20:03:57.909Z,100808.38
2023-08-04T20:06:29.412Z,100806.91
2023-08-04T20:09:00.907Z,100807.94
2023-08-04T20:11:32.735Z,100808.53
2023-08-04T20:14:04.241Z,100810.16
2023-08-04T20:16:36.221Z,100819.00
2023-08-04T20:19:07.728Z,100813.09
2023-08-04T20:21:39.594Z,100815.09
2023-08-04T20:24:11.071Z,100821.19
2023-08-04T20:26:42.797Z,100817.81
2023-08-04T20:29:14.466Z,100816.94
2023-08-04T20:31:45.982Z,100816.47
2023-08-04T20:34:17.770Z,100809.38
2023-08-04T20:36:49.528Z,100809.50
2023-08-04T20:39:21.504Z,100815.44
2023-08-04T20:41:52.994Z,100817.50
2023-08-04T20:44:24.911Z,100825.91
2023-08-04T20:46:56.403Z,100825.28
2023-08-04T20:49:27.918Z,100828.34
2023-08-04T20:51:59.447Z,100828.47
2023-08-04T20:54:31.246Z,100833.50
2023-08-04T20:57:03.080Z,100837.75
2023-08-04T20:59:34.951Z,100835.63
2023-08-04T21:02:06.811Z,100842.41
2023-08-04T21:04:38.367Z,100836.13
2023-08-04T21:07:10.172Z,100838.34
2023-08-04T21:09:41.661Z,100843.47
2023-08-04T21:12:13.651Z,100839.88
2023-08-04T21:14:45.161Z,100835.34
2023-08-04T21:17:17.064Z,100841.53
2023-08-04T21:19:48.539Z,100844.69
2023-08-04T21:22:20.382Z,100842.81
2023-08-04T21:24:51.879Z,100852.25
2023-08-04T21:27:23.694Z,100846.63
2023-08-04T21:29:55.215Z,100848.47
2023-08-04T21:32:26.732Z,100849.78
2023-08-04T21:34:58.593Z,100850.31
2023-08-04T21:37:30.191Z,100861.31
2023-08-04T21:40:02.145Z,100851.56
2023-08-04T21:42:33.656Z,100854.31
2023-08-04T21:45:05.702Z,100854.13
2023-08-04T21:47:37.281Z,100847.28
2023-08-04T21:50:09.376Z,100849.47
2023-08-04T21:52:40.878Z,100838.94
2023-08-04T21:55:12.793Z,100834.16
2023-08-04T21:57:44.700Z,100836.91
2023-08-04T22:00:16.211Z,100840.53
2023-08-04T22:02:48.012Z,100845.31
2023-08-04T22:05:19.590Z,100848.53
2023-08-04T22:07:51.160Z,100846.03
2023-08-04T22:10:22.683Z,100851.09
2023-08-04T22:12:54.237Z,100844.72
2023-08-04T22:15:25.895Z,100850.91
2023-08-04T22:17:57.525Z,100854.94
2023-08-04T22:20:29.040Z,100860.94
2023-08-04T22:23:00.909Z,100854.59
2023-08-04T22:25:32.664Z,100859.94
2023-08-04T22:28:04.729Z,100862.78
2023-08-04T22:30:36.587Z,100866.97
2023-08-04T22:33:08.150Z,100863.16
2023-08-04T22:35:40.015Z,100870.16
2023-08-04T22:38:11.512Z,100862.16
2023-08-04T22:40:43.273Z,100817.63
2023-08-04T22:43:14.778Z,100873.22
2023-08-04T22:45:46.576Z,100869.75
2023-08-04T22:48:18.105Z,100873.00
2023-08-04T22:50:49.978Z,100879.81
2023-08-04T22:53:21.458Z,100893.00
2023-08-04T22:55:53.018Z,100889.66
2023-08-04T22:58:24.859Z,100894.56
2023-08-04T23:00:56.366Z,100890.78
2023-08-04T23:03:28.262Z,100884.75
2023-08-04T23:05:59.785Z,100896.66
2023-08-04T23:08:31.669Z,100894.38
2023-08-04T23:11:03.156Z,100891.41
2023-08-04T23:13:35.062Z,100891.09
2023-08-04T23:16:06.623Z,100889.47
2023-08-04T23:18:38.464Z,100889.81
2023-08-04T23:21:10.306Z,100882.81
2023-08-04T23:23:42.169Z,100876.63
2023-08-04T23:26:14.036Z,100884.81
2023-08-04T23:28:45.839Z,100881.50
2023-08-04T23:31:17.817Z,100866.94
2023-08-04T23:33:49.387Z,100865.13
2023-08-04T23:36:21.149Z,100865.13
2023-08-04T23:38:52.647Z,100865.13
2023-08-04T23:41:24.704Z,100864.47
2023-08-04T23:43:56.181Z,100866.13
2023-08-04T23:46:28.006Z,100868.97
2023-08-04T23:49:00.120Z,100873.47
2023-08-04T23:51:31.992Z,100878.53
2023-08-04T23:54:03.966Z,100880.22
2023-08-04T23:56:35.461Z,100884.56
2023-08-04T23:59:07.155Z,100881.88
